Heyburn, ID

11:51 AM MST on December 22, 2014 (GMT -0700)
ITD Heyburn Interchange ID US | Change Station
CLOSE
Current Station
Personal Weather Station
Location: Heyburn, ID
Elevation: 4161 ft
Nearby Weather Stations
Active Advisory: Wind Advisory Active Notice: Record Report

Elev 4161 ft 42.57 °N, 113.73 °W | Updated 51 minutes ago

Scattered Clouds
Scattered Clouds
39 °F
Feels Like 28 °F
N
27
Wind Variable Wind from West
Gusts 34.0 mph

Today
High -- | Low -- °F
--% Chance of Precip.
Yesterday
High -- | Low -- °F
Precip. -- in
8:02 AM 5:05 PM
New Moon, 1% visible
Pressure 30.05 in
Visibility 10.0 miles
Clouds Scattered Clouds 1400 ft
Windchill 28 °F
Dew Point 32 °F
Humidity 76%
Rainfall 0.07 in
Snow Depth Not available.
UV 1 out of 12
Pollen .10 out of 12
Air Quality Not available.
Flu Activity Not available.
METAR KBYI 221753Z AUTO 28015G32KT 10SM SCT014 04/01 A3003 RMK AO2 PK WND 27036/1729 SLP176 T00440011 10044 20028 53013

More Conditions Fewer Conditions

Pressure 30.05 in
Visibility 10.0 miles
Clouds Scattered Clouds 1400 ft
Windchill 28 °F
Dew Point 32 °F
Humidity 76%
Rainfall 0.07 in
Snow Depth Not available.
UV 1 out of 12
Pollen .10 out of 12
Air Quality Not available.
Flu Activity Not available.
METAR KBYI 221753Z AUTO 28015G32KT 10SM SCT014 04/01 A3003 RMK AO2 PK WND 27036/1729 SLP176 T00440011 10044 20028 53013

More Conditions Fewer Conditions

10-Day Weather Forecast

Almanac

Astronomy

Dec. 22, 2014 Rise Set
Actual Time
Civil Twilight
Nautical Twilight
Astronomical Twilight
Moon
Length of Visible Light
Length of Day
Tomorrow will be .
, % of the Moon is Illuminated

Today's Extremes

State Highs State Lows

Community

WunderPhotos

Upload Photos

1,779,687 photos uploaded!

WunderBlogs® & News

Nearby

Air Quality

  Air Quality AQ Index Pollutant
Not available.

Snow Depth

Station Depth Elevation

Earthquake Activity

City Distance Mag. Time & Date
Minimum magnitude displayed is 2.5.

Coastal Water Temperatures

Place Temperature

Nearby Weather Stations